sensor_id;sensor_type;location;lat;lon;timestamp;pressure;altitude;pressure_sealevel;temperature
60731;BMP280;46580;52.114;11.674;2023-05-07T00:00:01;101589.81;;;9.76
60731;BMP280;46580;52.114;11.674;2023-05-07T00:02:27;101595.44;;;9.83
60731;BMP280;46580;52.114;11.674;2023-05-07T00:04:53;101604.28;;;9.77
60731;BMP280;46580;52.114;11.674;2023-05-07T00:07:18;101603.72;;;9.72
60731;BMP280;46580;52.114;11.674;2023-05-07T00:09:43;101608.72;;;9.75
60731;BMP280;46580;52.114;11.674;2023-05-07T00:12:09;101605.22;;;9.76
60731;BMP280;46580;52.114;11.674;2023-05-07T00:14:34;101596.06;;;9.86
60731;BMP280;46580;52.114;11.674;2023-05-07T00:17:00;101591.97;;;9.84
60731;BMP280;46580;52.114;11.674;2023-05-07T00:19:25;101593.25;;;9.90
60731;BMP280;46580;52.114;11.674;2023-05-07T00:21:51;101593.69;;;9.83
60731;BMP280;46580;52.114;11.674;2023-05-07T00:24:18;101591.97;;;9.84
60731;BMP280;46580;52.114;11.674;2023-05-07T00:26:43;101584.31;;;9.82
60731;BMP280;46580;52.114;11.674;2023-05-07T00:29:09;101590.19;;;9.84
60731;BMP280;46580;52.114;11.674;2023-05-07T00:31:34;101591.28;;;9.80
60731;BMP280;46580;52.114;11.674;2023-05-07T00:34:00;101586.91;;;9.82
60731;BMP280;46580;52.114;11.674;2023-05-07T00:36:25;101593.88;;;9.80
60731;BMP280;46580;52.114;11.674;2023-05-07T00:38:51;101592.22;;;9.79
60731;BMP280;46580;52.114;11.674;2023-05-07T00:41:17;101596.03;;;9.72
60731;BMP280;46580;52.114;11.674;2023-05-07T00:43:42;101598.44;;;9.75
60731;BMP280;46580;52.114;11.674;2023-05-07T00:46:08;101594.78;;;9.79
60731;BMP280;46580;52.114;11.674;2023-05-07T00:48:33;101598.09;;;9.81
60731;BMP280;46580;52.114;11.674;2023-05-07T00:50:58;101596.97;;;9.85
60731;BMP280;46580;52.114;11.674;2023-05-07T00:53:24;101589.47;;;9.82
60731;BMP280;46580;52.114;11.674;2023-05-07T00:55:49;101593.81;;;9.66
60731;BMP280;46580;52.114;11.674;2023-05-07T00:58:15;101592.69;;;9.70
60731;BMP280;46580;52.114;11.674;2023-05-07T01:00:41;101593.81;;;9.66
60731;BMP280;46580;52.114;11.674;2023-05-07T01:03:06;101597.69;;;9.73
60731;BMP280;46580;52.114;11.674;2023-05-07T01:05:32;101589.06;;;9.74
60731;BMP280;46580;52.114;11.674;2023-05-07T01:07:57;101579.84;;;9.70
60731;BMP280;46580;52.114;11.674;2023-05-07T01:10:23;101587.75;;;9.67
60731;BMP280;46580;52.114;11.674;2023-05-07T01:12:49;101584.81;;;9.73
60731;BMP280;46580;52.114;11.674;2023-05-07T01:15:15;101591.28;;;9.80
60731;BMP280;46580;52.114;11.674;2023-05-07T01:17:42;101584.81;;;9.73
60731;BMP280;46580;52.114;11.674;2023-05-07T01:20:08;101593.38;;;9.74
60731;BMP280;46580;52.114;11.674;2023-05-07T01:22:36;101589.81;;;9.76
60731;BMP280;46580;52.114;11.674;2023-05-07T01:25:03;101591.44;;;9.77
60731;BMP280;46580;52.114;11.674;2023-05-07T01:27:29;101594.94;;;9.76
60731;BMP280;46580;52.114;11.674;2023-05-07T01:29:55;101595.59;;;9.80
60731;BMP280;46580;52.114;11.674;2023-05-07T01:32:29;101586.91;;;9.82
60731;BMP280;46580;52.114;11.674;2023-05-07T01:34:58;101586.97;;;9.81
60731;BMP280;46580;52.114;11.674;2023-05-07T01:37:25;101585.69;;;9.87
60731;BMP280;46580;52.114;11.674;2023-05-07T01:39:51;101585.78;;;9.86
60731;BMP280;46580;52.114;11.674;2023-05-07T01:42:17;101587.16;;;9.91
60731;BMP280;46580;52.114;11.674;2023-05-07T01:44:42;101579.91;;;9.98
60731;BMP280;46580;52.114;11.674;2023-05-07T01:47:08;101581.56;;;9.99
60731;BMP280;46580;52.114;11.674;2023-05-07T01:49:34;101588.91;;;9.91
60731;BMP280;46580;52.114;11.674;2023-05-07T01:52:00;101583.88;;;9.89
60731;BMP280;46580;52.114;11.674;2023-05-07T01:54:26;101584.69;;;9.90
60731;BMP280;46580;52.114;11.674;2023-05-07T01:56:53;101577.69;;;9.92
60731;BMP280;46580;52.114;11.674;2023-05-07T01:59:19;101591.31;;;9.94
60731;BMP280;46580;52.114;11.674;2023-05-07T02:01:44;101599.31;;;9.89
60731;BMP280;46580;52.114;11.674;2023-05-07T02:04:10;101595.63;;;9.93
60731;BMP280;46580;52.114;11.674;2023-05-07T02:06:35;101605.97;;;9.92
60731;BMP280;46580;52.114;11.674;2023-05-07T02:09:01;101601.22;;;10.00
60731;BMP280;46580;52.114;11.674;2023-05-07T02:11:26;101601.31;;;9.98
60731;BMP280;46580;52.114;11.674;2023-05-07T02:13:51;101606.56;;;9.83
60731;BMP280;46580;52.114;11.674;2023-05-07T02:16:18;101609.66;;;9.88
60731;BMP280;46580;52.114;11.674;2023-05-07T02:18:44;101611.34;;;9.89
60731;BMP280;46580;52.114;11.674;2023-05-07T02:21:09;101615.19;;;9.82
60731;BMP280;46580;52.114;11.674;2023-05-07T02:23:35;101610.66;;;9.85
60731;BMP280;46580;52.114;11.674;2023-05-07T02:26:00;101607.38;;;9.84
60731;BMP280;46580;52.114;11.674;2023-05-07T02:28:25;101609.84;;;9.85
60731;BMP280;46580;52.114;11.674;2023-05-07T02:30:52;101612.31;;;9.86
60731;BMP280;46580;52.114;11.674;2023-05-07T02:33:17;101614.97;;;9.85
60731;BMP280;46580;52.114;11.674;2023-05-07T02:35:43;101609.47;;;9.91
60731;BMP280;46580;52.114;11.674;2023-05-07T02:38:08;101611.72;;;9.97
60731;BMP280;46580;52.114;11.674;2023-05-07T02:40:36;101609.59;;;9.89
60731;BMP280;46580;52.114;11.674;2023-05-07T02:43:04;101614.50;;;9.79
60731;BMP280;46580;52.114;11.674;2023-05-07T02:45:29;101605.88;;;9.80
60731;BMP280;46580;52.114;11.674;2023-05-07T02:47:55;101610.88;;;9.83
60731;BMP280;46580;52.114;11.674;2023-05-07T02:50:20;101621.47;;;9.77
60731;BMP280;46580;52.114;11.674;2023-05-07T02:52:45;101618.41;;;9.70
60731;BMP280;46580;52.114;11.674;2023-05-07T02:55:11;101616.88;;;9.68
60731;BMP280;46580;52.114;11.674;2023-05-07T02:57:37;101625.13;;;9.73
60731;BMP280;46580;52.114;11.674;2023-05-07T03:00:16;101623.31;;;9.75
60731;BMP280;46580;52.114;11.674;2023-05-07T03:02:42;101622.47;;;9.74
60731;BMP280;46580;52.114;11.674;2023-05-07T03:05:07;101628.38;;;9.76
60731;BMP280;46580;52.114;11.674;2023-05-07T03:07:34;101617.09;;;9.79
60731;BMP280;46580;52.114;11.674;2023-05-07T03:10:00;101617.91;;;9.79
60731;BMP280;46580;52.114;11.674;2023-05-07T03:12:28;101614.56;;;9.77
60731;BMP280;46580;52.114;11.674;2023-05-07T03:14:53;101612.34;;;9.71
60731;BMP280;46580;52.114;11.674;2023-05-07T03:17:20;101613.44;;;9.83
60731;BMP280;46580;52.114;11.674;2023-05-07T03:19:45;101615.34;;;9.79
60731;BMP280;46580;52.114;11.674;2023-05-07T03:22:11;101616.50;;;9.74
60731;BMP280;46580;52.114;11.674;2023-05-07T03:24:36;101618.00;;;9.78
60731;BMP280;46580;52.114;11.674;2023-05-07T03:27:01;101623.47;;;9.72
60731;BMP280;46580;52.114;11.674;2023-05-07T03:29:26;101620.81;;;9.73
60731;BMP280;46580;52.114;11.674;2023-05-07T03:31:52;101628.13;;;9.81
60731;BMP280;46580;52.114;11.674;2023-05-07T03:34:17;101624.44;;;9.84
60731;BMP280;46580;52.114;11.674;2023-05-07T03:36:49;101617.84;;;9.81
60731;BMP280;46580;52.114;11.674;2023-05-07T03:39:15;101623.97;;;9.78
60731;BMP280;46580;52.114;11.674;2023-05-07T03:41:40;101623.81;;;9.81
60731;BMP280;46580;52.114;11.674;2023-05-07T03:44:06;101623.44;;;9.87
60731;BMP280;46580;52.114;11.674;2023-05-07T03:46:33;101618.31;;;9.72
60731;BMP280;46580;52.114;11.674;2023-05-07T03:48:58;101623.00;;;9.65
60731;BMP280;46580;52.114;11.674;2023-05-07T03:51:30;101625.66;;;9.64
60731;BMP280;46580;52.114;11.674;2023-05-07T03:53:55;101630.56;;;9.68
60731;BMP280;46580;52.114;11.674;2023-05-07T03:56:23;101629.81;;;9.66
60731;BMP280;46580;52.114;11.674;2023-05-07T03:58:51;101633.59;;;9.75
60731;BMP280;46580;52.114;11.674;2023-05-07T04:01:17;101629.81;;;9.66
60731;BMP280;46580;52.114;11.674;2023-05-07T04:03:42;101634.78;;;9.69
60731;BMP280;46580;52.114;11.674;2023-05-07T04:06:08;101638.91;;;9.72
60731;BMP280;46580;52.114;11.674;2023-05-07T04:08:33;101634.50;;;9.74
60731;BMP280;46580;52.114;11.674;2023-05-07T04:10:59;101640.97;;;9.81
60731;BMP280;46580;52.114;11.674;2023-05-07T04:13:25;101643.78;;;9.76
60731;BMP280;46580;52.114;11.674;2023-05-07T04:15:55;101642.28;;;9.72
60731;BMP280;46580;52.114;11.674;2023-05-07T04:18:20;101646.38;;;9.76
60731;BMP280;46580;52.114;11.674;2023-05-07T04:20:49;101642.50;;;9.69
60731;BMP280;46580;52.114;11.674;2023-05-07T04:23:15;101651.28;;;9.65
60731;BMP280;46580;52.114;11.674;2023-05-07T04:25:40;101652.50;;;9.74
60731;BMP280;46580;52.114;11.674;2023-05-07T04:28:06;101651.84;;;9.70
60731;BMP280;46580;52.114;11.674;2023-05-07T04:30:31;101653.56;;;9.85
60731;BMP280;46580;52.114;11.674;2023-05-07T04:32:57;101645.88;;;9.70
60731;BMP280;46580;52.114;11.674;2023-05-07T04:35:22;101650.22;;;9.69
60731;BMP280;46580;52.114;11.674;2023-05-07T04:37:48;101652.78;;;9.69
60731;BMP280;46580;52.114;11.674;2023-05-07T04:40:13;101656.41;;;9.65
60731;BMP280;46580;52.114;11.674;2023-05-07T04:42:38;101656.63;;;9.63
60731;BMP280;46580;52.114;11.674;2023-05-07T04:45:04;101660.19;;;9.60
60731;BMP280;46580;52.114;11.674;2023-05-07T04:47:30;101662.38;;;9.66
60731;BMP280;46580;52.114;11.674;2023-05-07T04:49:55;101659.75;;;9.67
60731;BMP280;46580;52.114;11.674;2023-05-07T04:52:20;101663.38;;;9.64
60731;BMP280;46580;52.114;11.674;2023-05-07T04:54:46;101669.63;;;9.60
60731;BMP280;46580;52.114;11.674;2023-05-07T04:57:11;101674.59;;;9.63
60731;BMP280;46580;52.114;11.674;2023-05-07T04:59:37;101667.44;;;9.67
60731;BMP280;46580;52.114;11.674;2023-05-07T05:02:02;101665.28;;;9.75
60731;BMP280;46580;52.114;11.674;2023-05-07T05:04:29;101657.47;;;9.77
60731;BMP280;46580;52.114;11.674;2023-05-07T05:06:55;101660.28;;;9.72
60731;BMP280;46580;52.114;11.674;2023-05-07T05:09:20;101656.81;;;9.73
60731;BMP280;46580;52.114;11.674;2023-05-07T05:11:45;101652.03;;;9.67
60731;BMP280;46580;52.114;11.674;2023-05-07T05:14:11;101663.78;;;9.71
60731;BMP280;46580;52.114;11.674;2023-05-07T05:16:36;101668.25;;;9.83
60731;BMP280;46580;52.114;11.674;2023-05-07T05:19:02;101673.56;;;9.80
60731;BMP280;46580;52.114;11.674;2023-05-07T05:21:27;101671.91;;;9.79
60731;BMP280;46580;52.114;11.674;2023-05-07T05:23:52;101668.75;;;9.74
60731;BMP280;46580;52.114;11.674;2023-05-07T05:26:18;101680.03;;;9.72
60731;BMP280;46580;52.114;11.674;2023-05-07T05:28:43;101685.00;;;9.75
60731;BMP280;46580;52.114;11.674;2023-05-07T05:31:09;101688.16;;;9.80
60731;BMP280;46580;52.114;11.674;2023-05-07T05:33:35;101702.69;;;9.81
60731;BMP280;46580;52.114;11.674;2023-05-07T05:36:00;101698.28;;;9.83
60731;BMP280;46580;52.114;11.674;2023-05-07T05:38:26;101708.75;;;9.80
60731;BMP280;46580;52.114;11.674;2023-05-07T05:40:51;101717.13;;;9.83
60731;BMP280;46580;52.114;11.674;2023-05-07T05:43:16;101698.75;;;9.89
60731;BMP280;46580;52.114;11.674;2023-05-07T05:45:42;101715.47;;;9.82
60731;BMP280;46580;52.114;11.674;2023-05-07T05:48:07;101709.06;;;9.89
60731;BMP280;46580;52.114;11.674;2023-05-07T05:50:33;101715.19;;;9.86
60731;BMP280;46580;52.114;11.674;2023-05-07T05:53:00;101708.22;;;9.88
60731;BMP280;46580;52.114;11.674;2023-05-07T05:55:26;101709.69;;;9.92
60731;BMP280;46580;52.114;11.674;2023-05-07T05:57:52;101718.63;;;10.01
60731;BMP280;46580;52.114;11.674;2023-05-07T06:00:17;101714.31;;;10.01
60731;BMP280;46580;52.114;11.674;2023-05-07T06:02:43;101708.84;;;9.92
60731;BMP280;46580;52.114;11.674;2023-05-07T06:05:08;101707.41;;;10.02
60731;BMP280;46580;52.114;11.674;2023-05-07T06:07:34;101710.81;;;10.02
60731;BMP280;46580;52.114;11.674;2023-05-07T06:10:00;101706.31;;;10.19
60731;BMP280;46580;52.114;11.674;2023-05-07T06:12:27;101717.06;;;10.12
60731;BMP280;46580;52.114;11.674;2023-05-07T06:14:52;101714.84;;;10.06
60731;BMP280;46580;52.114;11.674;2023-05-07T06:17:17;101716.44;;;10.08
60731;BMP280;46580;52.114;11.674;2023-05-07T06:19:43;101715.78;;;10.05
60731;BMP280;46580;52.114;11.674;2023-05-07T06:22:08;101718.53;;;10.02
60731;BMP280;46580;52.114;11.674;2023-05-07T06:24:33;101714.22;;;10.03
60731;BMP280;46580;52.114;11.674;2023-05-07T06:26:59;101706.31;;;10.05
60731;BMP280;46580;52.114;11.674;2023-05-07T06:29:24;101720.47;;;10.12
60731;BMP280;46580;52.114;11.674;2023-05-07T06:31:52;101720.56;;;10.11
60731;BMP280;46580;52.114;11.674;2023-05-07T06:34:17;101715.25;;;10.14
60731;BMP280;46580;52.114;11.674;2023-05-07T06:36:43;101721.22;;;10.14
60731;BMP280;46580;52.114;11.674;2023-05-07T06:39:08;101718.47;;;10.17
60731;BMP280;46580;52.114;11.674;2023-05-07T06:41:34;101723.81;;;10.28
60731;BMP280;46580;52.114;11.674;2023-05-07T06:44:01;101717.38;;;10.21
60731;BMP280;46580;52.114;11.674;2023-05-07T06:46:27;101722.34;;;10.24
60731;BMP280;46580;52.114;11.674;2023-05-07T06:48:52;101723.25;;;10.23
60731;BMP280;46580;52.114;11.674;2023-05-07T06:51:18;101725.16;;;10.20
60731;BMP280;46580;52.114;11.674;2023-05-07T06:53:43;101729.94;;;10.25
60731;BMP280;46580;52.114;11.674;2023-05-07T06:56:08;101730.59;;;10.15
60731;BMP280;46580;52.114;11.674;2023-05-07T06:58:33;101736.84;;;10.25
60731;BMP280;46580;52.114;11.674;2023-05-07T07:00:59;101732.06;;;10.33
60731;BMP280;46580;52.114;11.674;2023-05-07T07:03:24;101731.91;;;10.36
60731;BMP280;46580;52.114;11.674;2023-05-07T07:05:54;101729.13;;;10.39
60731;BMP280;46580;52.114;11.674;2023-05-07T07:08:20;101719.78;;;10.24
60731;BMP280;46580;52.114;11.674;2023-05-07T07:10:46;101722.16;;;10.27
60731;BMP280;46580;52.114;11.674;2023-05-07T07:13:12;101724.72;;;10.40
60731;BMP280;46580;52.114;11.674;2023-05-07T07:15:38;101735.41;;;10.35
60731;BMP280;46580;52.114;11.674;2023-05-07T07:18:04;101743.66;;;10.26
60731;BMP280;46580;52.114;11.674;2023-05-07T07:20:30;101738.34;;;10.29
60731;BMP280;46580;52.114;11.674;2023-05-07T07:22:55;101740.81;;;10.30
60731;BMP280;46580;52.114;11.674;2023-05-07T07:25:20;101733.94;;;10.31
60731;BMP280;46580;52.114;11.674;2023-05-07T07:27:46;101736.03;;;10.38
60731;BMP280;46580;52.114;11.674;2023-05-07T07:30:11;101739.81;;;10.46
60731;BMP280;46580;52.114;11.674;2023-05-07T07:32:37;101742.38;;;10.46
60731;BMP280;46580;52.114;11.674;2023-05-07T07:35:02;101747.16;;;10.39
60731;BMP280;46580;52.114;11.674;2023-05-07T07:37:28;101737.69;;;10.39
60731;BMP280;46580;52.114;11.674;2023-05-07T07:39:53;101738.16;;;10.45
60731;BMP280;46580;52.114;11.674;2023-05-07T07:42:19;101742.38;;;10.60
60731;BMP280;46580;52.114;11.674;2023-05-07T07:44:44;101741.56;;;10.59
60731;BMP280;46580;52.114;11.674;2023-05-07T07:47:10;101745.88;;;10.59
60731;BMP280;46580;52.114;11.674;2023-05-07T07:49:35;101749.47;;;10.57
60731;BMP280;46580;52.114;11.674;2023-05-07T07:52:01;101752.13;;;10.69
60731;BMP280;46580;52.114;11.674;2023-05-07T07:54:26;101750.47;;;10.68
60731;BMP280;46580;52.114;11.674;2023-05-07T07:56:52;101753.81;;;10.70
60731;BMP280;46580;52.114;11.674;2023-05-07T07:59:17;101757.38;;;10.67
60731;BMP280;46580;52.114;11.674;2023-05-07T08:01:44;101757.09;;;10.72
60731;BMP280;46580;52.114;11.674;2023-05-07T08:04:10;101763.63;;;10.77
60731;BMP280;46580;52.114;11.674;2023-05-07T08:06:36;101769.88;;;10.87
60731;BMP280;46580;52.114;11.674;2023-05-07T08:09:01;101764.81;;;10.85
60731;BMP280;46580;52.114;11.674;2023-05-07T08:11:27;101778.63;;;10.98
60731;BMP280;46580;52.114;11.674;2023-05-07T08:13:54;101775.31;;;10.96
60731;BMP280;46580;52.114;11.674;2023-05-07T08:16:22;101773.09;;;10.90
60731;BMP280;46580;52.114;11.674;2023-05-07T08:18:47;101780.81;;;11.04
60731;BMP280;46580;52.114;11.674;2023-05-07T08:21:13;101774.38;;;10.97
60731;BMP280;46580;52.114;11.674;2023-05-07T08:23:38;101774.09;;;10.88
60731;BMP280;46580;52.114;11.674;2023-05-07T08:26:03;101776.97;;;10.83
60731;BMP280;46580;52.114;11.674;2023-05-07T08:28:29;101776.06;;;10.84
60731;BMP280;46580;52.114;11.674;2023-05-07T08:30:54;101772.91;;;10.93
60731;BMP280;46580;52.114;11.674;2023-05-07T08:33:21;101775.94;;;10.99
60731;BMP280;46580;52.114;11.674;2023-05-07T08:35:46;101780.63;;;11.07
60731;BMP280;46580;52.114;11.674;2023-05-07T08:38:12;101777.94;;;11.08
60731;BMP280;46580;52.114;11.674;2023-05-07T08:40:38;101767.03;;;11.05
60731;BMP280;46580;52.114;11.674;2023-05-07T08:43:07;101772.25;;;11.03
60731;BMP280;46580;52.114;11.674;2023-05-07T08:45:34;101773.44;;;11.12
60731;BMP280;46580;52.114;11.674;2023-05-07T08:48:02;101770.97;;;10.96
60731;BMP280;46580;52.114;11.674;2023-05-07T08:50:28;101774.75;;;10.91
60731;BMP280;46580;52.114;11.674;2023-05-07T08:52:54;101787.97;;;10.99
60731;BMP280;46580;52.114;11.674;2023-05-07T08:55:21;101791.31;;;11.01
60731;BMP280;46580;52.114;11.674;2023-05-07T08:57:47;101785.84;;;11.05
60731;BMP280;46580;52.114;11.674;2023-05-07T09:00:13;101785.13;;;11.17
60731;BMP280;46580;52.114;11.674;2023-05-07T09:02:38;101790.00;;;11.08
60731;BMP280;46580;52.114;11.674;2023-05-07T09:05:04;101798.47;;;11.10
60731;BMP280;46580;52.114;11.674;2023-05-07T09:07:31;101803.88;;;11.19
60731;BMP280;46580;52.114;11.674;2023-05-07T09:09:56;101793.31;;;11.10
60731;BMP280;46580;52.114;11.674;2023-05-07T09:12:25;101797.09;;;11.04
60731;BMP280;46580;52.114;11.674;2023-05-07T09:14:50;101799.31;;;10.96
60731;BMP280;46580;52.114;11.674;2023-05-07T09:17:16;101804.94;;;11.03
60731;BMP280;46580;52.114;11.674;2023-05-07T09:19:46;101811.16;;;11.13
60731;BMP280;46580;52.114;11.674;2023-05-07T09:22:12;101811.91;;;11.14
60731;BMP280;46580;52.114;11.674;2023-05-07T09:24:37;101810.97;;;11.15
60731;BMP280;46580;52.114;11.674;2023-05-07T09:27:04;101807.28;;;11.19
60731;BMP280;46580;52.114;11.674;2023-05-07T09:29:30;101805.28;;;11.24
60731;BMP280;46580;52.114;11.674;2023-05-07T09:32:03;101800.13;;;11.24
60731;BMP280;46580;52.114;11.674;2023-05-07T09:34:29;101792.75;;;11.32
60731;BMP280;46580;52.114;11.674;2023-05-07T09:36:55;101802.13;;;11.33
60731;BMP280;46580;52.114;11.674;2023-05-07T09:39:22;101797.78;;;11.47
60731;BMP280;46580;52.114;11.674;2023-05-07T09:41:48;101803.38;;;11.53
60731;BMP280;46580;52.114;11.674;2023-05-07T09:44:14;101805.25;;;11.52
60731;BMP280;46580;52.114;11.674;2023-05-07T09:46:42;101809.41;;;11.66
60731;BMP280;46580;52.114;11.674;2023-05-07T09:49:13;101803.78;;;11.73
60731;BMP280;46580;52.114;11.674;2023-05-07T09:54:10;101803.78;;;11.99
60731;BMP280;46580;52.114;11.674;2023-05-07T09:56:36;101797.56;;;12.02
60731;BMP280;46580;52.114;11.674;2023-05-07T09:59:03;101801.72;;;12.04
60731;BMP280;46580;52.114;11.674;2023-05-07T10:01:31;101792.78;;;11.84
60731;BMP280;46580;52.114;11.674;2023-05-07T10:03:57;101788.91;;;12.03
60731;BMP280;46580;52.114;11.674;2023-05-07T10:06:24;101793.47;;;12.11
60731;BMP280;46580;52.114;11.674;2023-05-07T10:08:51;101784.09;;;12.23
60731;BMP280;46580;52.114;11.674;2023-05-07T10:11:17;101787.66;;;12.08
60731;BMP280;46580;52.114;11.674;2023-05-07T10:13:43;101790.25;;;12.08
60731;BMP280;46580;52.114;11.674;2023-05-07T10:16:08;101793.91;;;12.18
60731;BMP280;46580;52.114;11.674;2023-05-07T10:18:34;101799.91;;;12.18
60731;BMP280;46580;52.114;11.674;2023-05-07T10:23:31;101808.56;;;12.29
60731;BMP280;46580;52.114;11.674;2023-05-07T10:25:58;101800.72;;;12.19
60731;BMP280;46580;52.114;11.674;2023-05-07T10:28:25;101805.88;;;12.19
60731;BMP280;46580;52.114;11.674;2023-05-07T10:31:21;101806.19;;;12.26
60731;BMP280;46580;52.114;11.674;2023-05-07T10:33:48;101802.59;;;12.29
60731;BMP280;46580;52.114;11.674;2023-05-07T10:36:16;101800.22;;;12.38
60731;BMP280;46580;52.114;11.674;2023-05-07T10:38:42;101800.13;;;12.40
60731;BMP280;46580;52.114;11.674;2023-05-07T10:41:08;101798.25;;;12.54
60731;BMP280;46580;52.114;11.674;2023-05-07T10:43:44;101800.25;;;12.63
60731;BMP280;46580;52.114;11.674;2023-05-07T10:46:15;101795.84;;;12.64
60731;BMP280;46580;52.114;11.674;2023-05-07T10:51:37;101789.75;;;12.65
60731;BMP280;46580;52.114;11.674;2023-05-07T10:56:38;101803.47;;;12.66
60731;BMP280;46580;52.114;11.674;2023-05-07T11:02:00;101784.56;;;12.65
60731;BMP280;46580;52.114;11.674;2023-05-07T11:04:31;101793.97;;;12.66
60731;BMP280;46580;52.114;11.674;2023-05-07T11:15:12;101800.78;;;12.92
60731;BMP280;46580;52.114;11.674;2023-05-07T11:17:55;101798.06;;;13.05
60731;BMP280;46580;52.114;11.674;2023-05-07T11:20:20;101799.16;;;13.26
60731;BMP280;46580;52.114;11.674;2023-05-07T11:22:47;101802.56;;;13.26
60731;BMP280;46580;52.114;11.674;2023-05-07T11:25:18;101801.09;;;13.35
60731;BMP280;46580;52.114;11.674;2023-05-07T11:27:44;101801.66;;;13.15
60731;BMP280;46580;52.114;11.674;2023-05-07T11:30:10;101792.53;;;13.22
60731;BMP280;46580;52.114;11.674;2023-05-07T11:32:41;101798.88;;;13.18
60731;BMP280;46580;52.114;11.674;2023-05-07T11:35:07;101810.69;;;12.98
60731;BMP280;46580;52.114;11.674;2023-05-07T11:37:33;101814.28;;;13.07
60731;BMP280;46580;52.114;11.674;2023-05-07T11:40:06;101808.09;;;12.98
60731;BMP280;46580;52.114;11.674;2023-05-07T11:42:34;101805.09;;;13.03
60731;BMP280;46580;52.114;11.674;2023-05-07T11:45:01;101811.28;;;13.01
60731;BMP280;46580;52.114;11.674;2023-05-07T11:47:30;101803.34;;;12.92
60731;BMP280;46580;52.114;11.674;2023-05-07T11:49:55;101809.66;;;13.00
60731;BMP280;46580;52.114;11.674;2023-05-07T11:52:23;101803.88;;;12.97
60731;BMP280;46580;52.114;11.674;2023-05-07T11:54:53;101806.06;;;12.66
60731;BMP280;46580;52.114;11.674;2023-05-07T11:57:20;101811.84;;;12.82
60731;BMP280;46580;52.114;11.674;2023-05-07T11:59:46;101808.22;;;12.84
60731;BMP280;46580;52.114;11.674;2023-05-07T12:02:17;101813.47;;;12.95
60731;BMP280;46580;52.114;11.674;2023-05-07T12:04:42;101806.78;;;12.80
60731;BMP280;46580;52.114;11.674;2023-05-07T12:07:15;101805.31;;;12.76
60731;BMP280;46580;52.114;11.674;2023-05-07T12:09:41;101815.66;;;12.88
60731;BMP280;46580;52.114;11.674;2023-05-07T12:12:06;101798.69;;;12.97
60731;BMP280;46580;52.114;11.674;2023-05-07T12:14:32;101808.50;;;13.04
60731;BMP280;46580;52.114;11.674;2023-05-07T12:16:59;101808.41;;;13.05
60731;BMP280;46580;52.114;11.674;2023-05-07T12:19:28;101800.00;;;13.14
60731;BMP280;46580;52.114;11.674;2023-05-07T12:21:53;101798.88;;;13.18
60731;BMP280;46580;52.114;11.674;2023-05-07T12:24:19;101801.91;;;13.35
60731;BMP280;46580;52.114;11.674;2023-05-07T12:26:44;101810.34;;;13.26
60731;BMP280;46580;52.114;11.674;2023-05-07T12:29:10;101802.09;;;13.44
60731;BMP280;46580;52.114;11.674;2023-05-07T12:31:35;101808.50;;;13.51
60731;BMP280;46580;52.114;11.674;2023-05-07T12:34:00;101809.31;;;13.52
60731;BMP280;46580;52.114;11.674;2023-05-07T12:36:39;101807.88;;;13.48
60731;BMP280;46580;52.114;11.674;2023-05-07T12:39:06;101803.75;;;13.45
60731;BMP280;46580;52.114;11.674;2023-05-07T12:41:36;101806.63;;;13.53
60731;BMP280;46580;52.114;11.674;2023-05-07T12:44:04;101811.66;;;13.55
60731;BMP280;46580;52.114;11.674;2023-05-07T12:46:29;101808.50;;;13.51
60731;BMP280;46580;52.114;11.674;2023-05-07T12:48:54;101814.84;;;13.47
60731;BMP280;46580;52.114;11.674;2023-05-07T12:51:20;101810.41;;;13.37
60731;BMP280;46580;52.114;11.674;2023-05-07T12:53:45;101805.63;;;13.43
60731;BMP280;46580;52.114;11.674;2023-05-07T12:56:10;101811.09;;;13.51
60731;BMP280;46580;52.114;11.674;2023-05-07T12:58:36;101804.88;;;13.54
60731;BMP280;46580;52.114;11.674;2023-05-07T13:01:06;101801.47;;;13.53
60731;BMP280;46580;52.114;11.674;2023-05-07T13:03:36;101803.50;;;13.60
60731;BMP280;46580;52.114;11.674;2023-05-07T13:06:04;101814.69;;;13.61
60731;BMP280;46580;52.114;11.674;2023-05-07T13:08:35;101812.13;;;13.49
60731;BMP280;46580;52.114;11.674;2023-05-07T13:11:03;101813.47;;;13.54
60731;BMP280;46580;52.114;11.674;2023-05-07T13:13:33;101815.53;;;13.49
60731;BMP280;46580;52.114;11.674;2023-05-07T13:15:59;101813.72;;;13.39
60731;BMP280;46580;52.114;11.674;2023-05-07T13:18:25;101809.38;;;13.39
60731;BMP280;46580;52.114;11.674;2023-05-07T13:20:51;101802.69;;;13.48
60731;BMP280;46580;52.114;11.674;2023-05-07T13:23:17;101806.88;;;13.38
60731;BMP280;46580;52.114;11.674;2023-05-07T13:25:42;101807.28;;;13.44
60731;BMP280;46580;52.114;11.674;2023-05-07T13:28:08;101804.16;;;13.52
60731;BMP280;46580;52.114;11.674;2023-05-07T13:30:33;101803.75;;;13.45
60731;BMP280;46580;52.114;11.674;2023-05-07T13:32:58;101806.97;;;13.37
60731;BMP280;46580;52.114;11.674;2023-05-07T13:35:25;101802.13;;;13.67
60731;BMP280;46580;52.114;11.674;2023-05-07T13:37:50;101793.91;;;13.85
60731;BMP280;46580;52.114;11.674;2023-05-07T13:40:17;101804.34;;;13.84
60731;BMP280;46580;52.114;11.674;2023-05-07T13:42:42;101796.13;;;13.67
60731;BMP280;46580;52.114;11.674;2023-05-07T13:45:08;101798.31;;;13.60
60731;BMP280;46580;52.114;11.674;2023-05-07T13:47:34;101796.88;;;13.57
60731;BMP280;46580;52.114;11.674;2023-05-07T13:49:59;101804.69;;;13.44
60731;BMP280;46580;52.114;11.674;2023-05-07T13:52:25;101800.44;;;13.43
60731;BMP280;46580;52.114;11.674;2023-05-07T13:54:50;101793.41;;;13.45
60731;BMP280;46580;52.114;11.674;2023-05-07T13:57:17;101794.19;;;13.58
60731;BMP280;46580;52.114;11.674;2023-05-07T13:59:42;101790.59;;;13.48
60731;BMP280;46580;52.114;11.674;2023-05-07T14:02:07;101799.84;;;13.40
60731;BMP280;46580;52.114;11.674;2023-05-07T14:04:34;101798.53;;;13.22